createdAt,value
2023-02-28T00:01:53.581Z,3.37
2023-02-28T00:04:38.968Z,4.33
2023-02-28T00:07:24.662Z,3.87
2023-02-28T00:10:13.054Z,4.07
2023-02-28T00:13:07.319Z,3.37
2023-02-28T00:16:28.008Z,3.37
2023-02-28T00:19:13.276Z,5.20
2023-02-28T00:21:58.381Z,5.03
2023-02-28T00:24:44.060Z,4.37
2023-02-28T00:27:29.378Z,4.17
2023-02-28T00:30:17.888Z,3.50
2023-02-28T00:33:03.516Z,3.10
2023-02-28T00:35:48.663Z,3.77
2023-02-28T00:38:34.534Z,3.83
2023-02-28T00:41:21.164Z,5.70
2023-02-28T00:44:06.257Z,3.73
2023-02-28T00:46:51.579Z,4.53
2023-02-28T00:49:36.973Z,4.93
2023-02-28T00:52:23.164Z,3.37
2023-02-28T00:55:08.827Z,4.00
2023-02-28T00:57:54.375Z,3.47
2023-02-28T01:00:39.602Z,3.60
2023-02-28T01:03:25.063Z,3.93
2023-02-28T01:06:10.635Z,3.87
2023-02-28T01:08:57.410Z,3.90
2023-02-28T01:11:42.877Z,3.10
2023-02-28T01:14:29.098Z,3.17
2023-02-28T01:17:14.319Z,4.27
2023-02-28T01:20:00.056Z,3.47
2023-02-28T01:22:45.410Z,3.83
2023-02-28T01:25:30.759Z,3.90
2023-02-28T01:28:16.359Z,3.90
2023-02-28T01:31:02.288Z,3.63
2023-02-28T01:33:47.864Z,2.97
2023-02-28T01:36:33.437Z,4.30
2023-02-28T01:39:18.600Z,3.93
2023-02-28T01:42:04.045Z,2.97
2023-02-28T01:45:26.318Z,3.20
2023-02-28T01:48:12.393Z,3.33
2023-02-28T01:51:02.717Z,4.77
2023-02-28T01:54:00.280Z,3.87
2023-02-28T01:56:53.123Z,3.43
2023-02-28T02:00:10.693Z,3.13
2023-02-28T02:03:05.732Z,2.53
2023-02-28T02:05:51.318Z,2.47
2023-02-28T02:08:37.752Z,3.80
2023-02-28T02:11:25.727Z,4.07
2023-02-28T02:14:38.463Z,2.80
2023-02-28T02:17:37.733Z,2.60
2023-02-28T02:20:41.236Z,2.47
2023-02-28T02:23:45.168Z,3.20
2023-02-28T02:26:36.423Z,2.83
2023-02-28T02:29:55.414Z,2.53
2023-02-28T02:33:11.093Z,3.23
2023-02-28T02:36:15.124Z,5.20
2023-02-28T02:39:03.582Z,3.37
2023-02-28T02:41:54.768Z,3.07
2023-02-28T02:44:53.338Z,2.67
2023-02-28T02:47:40.207Z,3.33
2023-02-28T02:50:30.815Z,3.23
2023-02-28T02:53:22.689Z,2.73
2023-02-28T02:56:09.264Z,3.47
2023-02-28T02:58:59.642Z,3.50
2023-02-28T03:01:45.526Z,3.00
2023-02-28T03:04:41.625Z,2.73
2023-02-28T03:07:27.894Z,3.03
2023-02-28T03:10:28.702Z,2.87
2023-02-28T03:13:50.161Z,3.03
2023-02-28T03:16:50.575Z,2.93
2023-02-28T03:19:45.860Z,2.33
2023-02-28T03:22:59.030Z,3.07
2023-02-28T03:26:05.572Z,3.10
2023-02-28T03:29:23.170Z,2.33
2023-02-28T03:32:36.267Z,2.37
2023-02-28T03:35:25.827Z,2.63
2023-02-28T03:38:35.318Z,2.60
2023-02-28T03:41:24.854Z,2.70
2023-02-28T03:44:16.565Z,2.33
2023-02-28T03:47:09.495Z,2.67
2023-02-28T03:50:16.203Z,2.50
2023-02-28T03:53:11.744Z,2.60
2023-02-28T03:56:35.224Z,4.70
2023-02-28T03:59:51.694Z,4.17
2023-02-28T04:02:37.015Z,2.43
2023-02-28T04:05:23.351Z,2.73
2023-02-28T04:08:09.226Z,2.67
2023-02-28T04:11:02.566Z,2.50
2023-02-28T04:13:48.003Z,4.30
2023-02-28T04:16:35.920Z,2.87
2023-02-28T04:19:21.524Z,2.63
2023-02-28T04:22:06.784Z,3.23
2023-02-28T04:24:52.656Z,2.43
2023-02-28T04:27:38.013Z,2.67
2023-02-28T04:30:23.408Z,3.07
2023-02-28T04:33:08.923Z,2.37
2023-02-28T04:36:06.130Z,2.67
2023-02-28T04:38:51.407Z,3.17
2023-02-28T04:41:36.720Z,2.63
2023-02-28T04:44:23.098Z,2.53
2023-02-28T04:47:08.437Z,3.97
2023-02-28T04:49:53.763Z,2.53
2023-02-28T04:52:39.048Z,2.33
2023-02-28T04:55:24.425Z,2.70
2023-02-28T04:58:10.093Z,3.43
2023-02-28T05:01:03.525Z,4.50
2023-02-28T05:03:50.010Z,2.10
2023-02-28T05:06:35.632Z,2.80
2023-02-28T05:09:20.971Z,2.47
2023-02-28T05:12:06.574Z,3.30
2023-02-28T05:14:51.754Z,2.80
2023-02-28T05:17:36.944Z,3.27
2023-02-28T05:20:22.300Z,2.77
2023-02-28T05:23:09.099Z,3.37
2023-02-28T05:25:54.681Z,3.73
2023-02-28T05:28:40.094Z,3.47
2023-02-28T05:31:25.384Z,3.13
2023-02-28T05:34:10.512Z,3.47
2023-02-28T05:36:55.897Z,2.83
2023-02-28T05:39:41.175Z,4.00
2023-02-28T05:42:26.666Z,4.17
2023-02-28T05:45:15.739Z,2.77
2023-02-28T05:48:01.314Z,5.17
2023-02-28T05:50:46.954Z,2.77
2023-02-28T05:53:32.840Z,3.17
2023-02-28T05:56:18.121Z,2.60
2023-02-28T05:59:03.368Z,2.70
2023-02-28T06:01:49.031Z,3.73
2023-02-28T06:04:34.643Z,2.93
2023-02-28T06:07:19.866Z,4.33
2023-02-28T06:10:05.930Z,4.97
2023-02-28T06:12:51.485Z,4.97
2023-02-28T06:15:36.991Z,3.10
2023-02-28T06:18:22.686Z,3.97
2023-02-28T06:21:08.025Z,3.13
2023-02-28T06:23:55.066Z,2.73
2023-02-28T06:26:40.669Z,4.03
2023-02-28T06:29:26.560Z,2.80
2023-02-28T06:32:11.897Z,4.10
2023-02-28T06:34:57.134Z,2.70
2023-02-28T06:37:42.592Z,2.70
2023-02-28T06:40:28.287Z,3.10
2023-02-28T06:43:13.694Z,3.63
2023-02-28T06:46:01.222Z,2.57
2023-02-28T06:48:46.701Z,2.80
2023-02-28T06:51:31.886Z,3.43
2023-02-28T06:54:17.329Z,3.37
2023-02-28T06:57:03.369Z,3.40
2023-02-28T06:59:50.266Z,2.70
2023-02-28T07:02:36.681Z,2.70
2023-02-28T07:05:21.761Z,3.37
2023-02-28T07:08:07.817Z,3.40
2023-02-28T07:10:56.946Z,3.50
2023-02-28T07:13:42.401Z,2.80
2023-02-28T07:16:27.796Z,2.27
2023-02-28T07:19:13.021Z,3.40
2023-02-28T07:21:58.135Z,3.30
2023-02-28T07:24:43.822Z,3.03
2023-02-28T07:27:29.250Z,3.70
2023-02-28T07:30:14.819Z,2.73
2023-02-28T07:32:59.794Z,3.43
2023-02-28T07:35:45.795Z,3.90
2023-02-28T07:38:32.065Z,3.20
2023-02-28T07:41:19.494Z,3.73
2023-02-28T07:44:04.748Z,3.70
2023-02-28T07:46:50.131Z,4.07
2023-02-28T07:49:39.797Z,4.10
2023-02-28T07:52:25.530Z,3.83
2023-02-28T07:55:13.526Z,4.03
2023-02-28T07:57:59.291Z,3.00
2023-02-28T08:00:44.594Z,3.60
2023-02-28T08:03:30.130Z,4.07
2023-02-28T08:06:21.603Z,4.80
2023-02-28T08:09:06.734Z,3.50
2023-02-28T08:11:51.997Z,5.43
2023-02-28T08:14:38.451Z,5.00
2023-02-28T08:17:24.135Z,4.60
2023-02-28T08:20:10.282Z,4.40
2023-02-28T08:22:55.481Z,3.77
2023-02-28T08:25:41.292Z,4.17
2023-02-28T08:28:27.543Z,3.97
2023-02-28T08:31:15.975Z,4.50
2023-02-28T08:34:01.368Z,3.20
2023-02-28T08:36:46.471Z,3.90
2023-02-28T08:39:35.465Z,3.43
2023-02-28T08:42:21.089Z,3.43
2023-02-28T08:45:07.019Z,4.53
2023-02-28T08:47:52.334Z,4.03
2023-02-28T08:50:37.489Z,3.97
2023-02-28T08:53:22.843Z,4.63
2023-02-28T08:56:12.624Z,4.60
2023-02-28T08:58:58.892Z,5.20
2023-02-28T09:01:44.288Z,4.63
2023-02-28T09:04:29.873Z,4.97
2023-02-28T09:07:15.291Z,4.37
2023-02-28T09:10:00.519Z,4.33
2023-02-28T09:12:45.975Z,4.10
2023-02-28T09:15:31.428Z,5.80
2023-02-28T09:18:17.639Z,4.83
2023-02-28T09:21:05.586Z,4.10
2023-02-28T09:23:51.736Z,3.40
2023-02-28T09:26:42.786Z,4.73
2023-02-28T09:29:34.372Z,3.33
2023-02-28T09:32:19.734Z,3.63
2023-02-28T09:35:05.714Z,5.00
2023-02-28T09:37:52.302Z,4.60
2023-02-28T09:41:16.672Z,6.57
2023-02-28T09:44:05.388Z,3.63
2023-02-28T09:46:56.869Z,3.93
2023-02-28T09:49:47.071Z,3.40
2023-02-28T09:52:33.555Z,4.43
2023-02-28T09:55:46.576Z,4.03
2023-02-28T09:58:48.374Z,3.63
2023-02-28T10:02:04.944Z,3.70
2023-02-28T10:04:58.969Z,5.03
2023-02-28T10:08:03.115Z,4.07
2023-02-28T10:10:52.427Z,4.47
2023-02-28T10:14:04.904Z,3.27
2023-02-28T10:16:54.129Z,4.63
2023-02-28T10:19:59.913Z,3.87
2023-02-28T10:22:59.076Z,3.80
2023-02-28T10:25:51.032Z,5.60
2023-02-28T10:28:36.830Z,5.37
2023-02-28T10:31:23.089Z,3.37
2023-02-28T10:34:13.702Z,3.13
2023-02-28T10:37:00.207Z,4.17
2023-02-28T10:39:48.298Z,3.63
2023-02-28T10:42:33.973Z,3.37
2023-02-28T10:45:19.671Z,4.00
2023-02-28T10:48:25.373Z,4.03
2023-02-28T10:51:23.282Z,3.80
2023-02-28T10:54:30.186Z,3.47
2023-02-28T10:57:21.853Z,4.97
2023-02-28T11:00:23.970Z,3.87
2023-02-28T11:03:26.107Z,3.70
2023-02-28T11:06:25.749Z,4.53
2023-02-28T11:09:26.212Z,4.20
2023-02-28T11:12:46.938Z,3.43
2023-02-28T11:15:36.611Z,3.60
2023-02-28T11:18:55.277Z,4.47
2023-02-28T11:21:48.941Z,4.27
2023-02-28T11:24:38.069Z,3.20
2023-02-28T11:27:32.745Z,4.60
2023-02-28T11:30:27.421Z,4.30
2023-02-28T11:33:28.145Z,3.43
2023-02-28T11:36:29.290Z,4.60
2023-02-28T11:39:16.387Z,3.80
2023-02-28T11:42:25.054Z,3.40
2023-02-28T11:45:23.895Z,3.70
2023-02-28T11:48:24.310Z,4.17
2023-02-28T11:51:22.749Z,4.10
2023-02-28T11:54:36.351Z,3.10
2023-02-28T11:57:30.881Z,3.67
2023-02-28T12:00:39.308Z,4.83
2023-02-28T12:03:37.074Z,4.30
2023-02-28T12:06:39.887Z,4.60
2023-02-28T12:09:39.919Z,3.97
2023-02-28T12:12:46.611Z,3.57
2023-02-28T12:15:50.098Z,3.77
2023-02-28T12:18:35.474Z,4.53
2023-02-28T12:21:39.526Z,4.63
2023-02-28T12:25:09.496Z,5.37
2023-02-28T12:27:55.556Z,5.00
2023-02-28T12:30:52.038Z,5.13
2023-02-28T12:33:43.101Z,5.33
2023-02-28T12:36:29.005Z,3.50
2023-02-28T12:39:23.938Z,4.20
2023-02-28T12:42:29.309Z,3.90
2023-02-28T12:45:21.007Z,5.87
2023-02-28T12:48:11.775Z,4.83
2023-02-28T12:50:57.904Z,4.43
2023-02-28T12:53:49.674Z,5.20
2023-02-28T12:56:48.732Z,4.80
2023-02-28T12:59:52.058Z,5.13
2023-02-28T13:03:02.235Z,3.90
2023-02-28T13:06:09.931Z,6.93
2023-02-28T13:09:24.883Z,4.00
2023-02-28T13:12:15.119Z,3.97
2023-02-28T13:15:06.775Z,4.30
2023-02-28T13:17:54.596Z,4.30
2023-02-28T13:20:49.304Z,6.83
2023-02-28T13:23:40.454Z,4.63
2023-02-28T13:26:31.975Z,5.17
2023-02-28T13:29:17.542Z,5.23
2023-02-28T13:32:09.012Z,4.53
2023-02-28T13:34:54.478Z,5.53
2023-02-28T13:37:45.217Z,5.30
2023-02-28T13:40:35.123Z,5.23
2023-02-28T13:43:27.899Z,5.30
2023-02-28T13:46:16.571Z,5.17
2023-02-28T13:49:23.893Z,5.17
2023-02-28T13:52:09.295Z,5.80
2023-02-28T13:55:17.782Z,6.20
2023-02-28T13:58:17.972Z,5.83
2023-02-28T14:01:27.002Z,5.60
2023-02-28T14:04:32.466Z,6.90
2023-02-28T14:07:28.203Z,4.60
2023-02-28T14:10:24.933Z,6.00
2023-02-28T14:13:31.932Z,4.67
2023-02-28T14:16:22.565Z,4.67
2023-02-28T14:19:25.415Z,5.00
2023-02-28T14:22:45.249Z,4.80
2023-02-28T14:25:33.814Z,6.70
2023-02-28T14:28:40.980Z,5.70
2023-02-28T14:31:41.578Z,5.20
2023-02-28T14:34:45.984Z,5.47
2023-02-28T14:37:38.233Z,6.00
2023-02-28T14:40:35.597Z,5.67
2023-02-28T14:43:26.629Z,5.33
2023-02-28T14:46:14.579Z,5.10
2023-02-28T14:48:59.955Z,5.63
2023-02-28T14:51:45.102Z,5.63
2023-02-28T14:54:30.713Z,6.90
2023-02-28T14:57:40.058Z,4.80
2023-02-28T15:00:32.583Z,5.67
2023-02-28T15:03:40.467Z,4.87
2023-02-28T15:06:26.750Z,6.37
2023-02-28T15:09:19.149Z,7.17
2023-02-28T15:12:04.957Z,5.93
2023-02-28T15:14:52.267Z,5.70
2023-02-28T15:17:37.807Z,5.87
2023-02-28T15:20:24.705Z,6.00
2023-02-28T15:23:11.786Z,6.23
2023-02-28T15:25:58.219Z,7.30
2023-02-28T15:28:44.801Z,7.40
2023-02-28T15:31:50.251Z,6.13
2023-02-28T15:34:43.328Z,6.30
2023-02-28T15:37:48.125Z,7.50
2023-02-28T15:40:39.684Z,6.27
2023-02-28T15:43:24.973Z,6.27
2023-02-28T15:46:12.963Z,6.80
2023-02-28T15:48:58.746Z,7.37
2023-02-28T15:51:44.301Z,7.00
2023-02-28T15:54:36.446Z,6.30
2023-02-28T15:57:25.172Z,6.43
2023-02-28T16:00:14.864Z,6.90
2023-02-28T16:03:00.489Z,7.50
2023-02-28T16:05:46.426Z,6.87
2023-02-28T16:08:31.543Z,6.60
2023-02-28T16:11:17.204Z,7.50
2023-02-28T16:14:02.327Z,7.57
2023-02-28T16:16:51.661Z,7.17
2023-02-28T16:19:37.165Z,11.03
2023-02-28T16:22:23.122Z,6.57
2023-02-28T16:25:12.260Z,8.00
2023-02-28T16:27:58.123Z,7.07
2023-02-28T16:30:43.899Z,6.47
2023-02-28T16:33:30.584Z,8.57
2023-02-28T16:36:18.791Z,7.00
2023-02-28T16:39:06.058Z,6.43
2023-02-28T16:41:52.982Z,6.30
2023-02-28T16:44:38.345Z,7.53
2023-02-28T16:47:23.636Z,7.13
2023-02-28T16:50:26.932Z,7.60
2023-02-28T16:53:12.215Z,6.67
2023-02-28T16:55:57.605Z,10.23
2023-02-28T16:58:43.329Z,9.33
2023-02-28T17:01:29.693Z,8.20
2023-02-28T17:04:15.260Z,7.70
2023-02-28T17:07:00.561Z,9.03
2023-02-28T17:09:46.803Z,7.30
2023-02-28T17:12:32.850Z,10.13
2023-02-28T17:15:20.226Z,8.07
2023-02-28T17:18:06.772Z,8.90
2023-02-28T17:20:51.975Z,8.63
2023-02-28T17:23:37.308Z,8.63
2023-02-28T17:26:23.599Z,8.47
2023-02-28T17:29:21.266Z,7.77
2023-02-28T17:32:17.206Z,7.33
2023-02-28T17:35:03.271Z,9.60
2023-02-28T17:37:48.892Z,10.17
2023-02-28T17:40:34.742Z,9.00
2023-02-28T17:43:20.227Z,9.63
2023-02-28T17:46:07.040Z,9.20
2023-02-28T17:48:55.178Z,10.10
2023-02-28T17:51:40.426Z,8.37
2023-02-28T17:54:26.060Z,9.67
2023-02-28T17:57:17.632Z,10.70
2023-02-28T18:00:04.321Z,9.80
2023-02-28T18:02:56.645Z,8.53
2023-02-28T18:05:42.045Z,9.17
2023-02-28T18:08:27.645Z,9.03
2023-02-28T18:11:13.476Z,9.50
2023-02-28T18:13:58.998Z,9.27
2023-02-28T18:16:45.600Z,11.20
2023-02-28T18:19:30.893Z,10.53
2023-02-28T18:22:16.441Z,8.83
2023-02-28T18:25:02.053Z,8.80
2023-02-28T18:27:47.221Z,8.43
2023-02-28T18:30:36.746Z,11.57
2023-02-28T18:33:21.888Z,9.00
2023-02-28T18:36:07.570Z,10.87
2023-02-28T18:38:53.915Z,9.90
2023-02-28T18:41:39.910Z,9.43
2023-02-28T18:44:25.520Z,10.77
2023-02-28T18:47:10.729Z,9.37
2023-02-28T18:49:56.030Z,11.40
2023-02-28T18:52:41.547Z,9.30
2023-02-28T18:55:27.999Z,10.00
2023-02-28T18:58:13.593Z,10.37
2023-02-28T19:01:00.254Z,11.70
2023-02-28T19:03:46.986Z,11.50
2023-02-28T19:06:35.259Z,9.67
2023-02-28T19:09:20.922Z,12.23
2023-02-28T19:12:07.474Z,10.37
2023-02-28T19:14:54.241Z,11.93
2023-02-28T19:17:39.599Z,11.77
2023-02-28T19:20:25.238Z,11.43
2023-02-28T19:23:10.385Z,13.97
2023-02-28T19:25:55.722Z,12.80
2023-02-28T19:28:41.426Z,13.03
2023-02-28T19:31:27.089Z,13.73
2023-02-28T19:34:12.747Z,10.03
2023-02-28T19:36:58.286Z,11.80
2023-02-28T19:39:45.100Z,12.47
2023-02-28T19:42:30.474Z,12.83
2023-02-28T19:45:15.614Z,14.33
2023-02-28T19:48:00.904Z,13.67
2023-02-28T19:50:46.297Z,12.73
2023-02-28T19:53:32.795Z,14.43
2023-02-28T19:56:18.100Z,12.50
2023-02-28T19:59:05.009Z,12.70
2023-02-28T20:01:52.525Z,15.43
2023-02-28T20:04:37.962Z,12.37
2023-02-28T20:07:23.433Z,15.50
2023-02-28T20:10:10.005Z,16.33
2023-02-28T20:12:55.541Z,14.43
2023-02-28T20:15:40.904Z,14.03
2023-02-28T20:18:26.514Z,13.60
2023-02-28T20:21:13.002Z,14.60
2023-02-28T20:23:58.177Z,14.00
2023-02-28T20:26:44.110Z,14.50
2023-02-28T20:29:29.949Z,14.97
2023-02-28T20:32:15.634Z,14.63
2023-02-28T20:35:00.858Z,14.53
2023-02-28T20:37:46.152Z,15.37
2023-02-28T20:40:32.123Z,12.43
2023-02-28T20:43:17.557Z,15.73
2023-02-28T20:46:03.490Z,15.43
2023-02-28T20:48:48.869Z,15.60
2023-02-28T20:51:34.110Z,14.30
2023-02-28T20:54:19.664Z,13.93
2023-02-28T20:57:05.062Z,14.33
2023-02-28T20:59:50.470Z,13.40
2023-02-28T21:02:37.112Z,15.63
2023-02-28T21:05:22.232Z,11.37
2023-02-28T21:08:07.568Z,14.83
2023-02-28T21:10:53.075Z,14.07
2023-02-28T21:13:38.524Z,15.13
2023-02-28T21:16:26.107Z,15.23
2023-02-28T21:19:12.216Z,15.60
2023-02-28T21:21:57.963Z,15.27
2023-02-28T21:24:43.166Z,15.60
2023-02-28T21:27:28.876Z,15.07
2023-02-28T21:30:14.580Z,17.67
2023-02-28T21:32:59.872Z,16.27
2023-02-28T21:35:45.392Z,17.50
2023-02-28T21:38:30.822Z,19.13
2023-02-28T21:41:19.441Z,19.17
2023-02-28T21:44:05.491Z,16.77
2023-02-28T21:46:52.297Z,17.57
2023-02-28T21:49:37.923Z,15.43
2023-02-28T21:52:23.259Z,15.47
2023-02-28T21:55:08.983Z,16.43
2023-02-28T21:57:54.358Z,16.13
2023-02-28T22:00:40.411Z,17.30
2023-02-28T22:03:27.005Z,14.23
2023-02-28T22:06:18.373Z,16.70
2023-02-28T22:09:06.161Z,16.50
2023-02-28T22:11:51.516Z,15.80
2023-02-28T22:14:39.382Z,16.33
2023-02-28T22:17:25.029Z,16.27
2023-02-28T22:20:11.052Z,14.73
2023-02-28T22:22:56.515Z,16.77
2023-02-28T22:25:41.999Z,16.17
2023-02-28T22:28:28.854Z,17.00
2023-02-28T22:31:19.102Z,14.70
2023-02-28T22:34:08.488Z,12.90
2023-02-28T22:36:53.925Z,14.93
2023-02-28T22:39:39.429Z,15.00
2023-02-28T22:42:24.808Z,17.60
2023-02-28T22:45:10.564Z,16.40
2023-02-28T22:47:55.968Z,15.13
2023-02-28T22:50:41.804Z,13.83
2023-02-28T22:53:27.007Z,14.53
2023-02-28T22:56:14.260Z,14.17
2023-02-28T22:59:00.994Z,14.10
2023-02-28T23:01:46.405Z,12.03
2023-02-28T23:04:31.824Z,14.40
2023-02-28T23:07:17.160Z,15.57
2023-02-28T23:10:14.095Z,13.17
2023-02-28T23:12:59.569Z,13.53
2023-02-28T23:15:45.504Z,15.13
2023-02-28T23:18:31.411Z,15.23
2023-02-28T23:21:16.528Z,14.10
2023-02-28T23:24:04.832Z,14.70
2023-02-28T23:26:52.672Z,15.40
2023-02-28T23:29:38.042Z,17.43
2023-02-28T23:32:23.550Z,15.20
2023-02-28T23:35:10.362Z,17.53
2023-02-28T23:37:56.605Z,17.53
2023-02-28T23:40:42.001Z,19.17
2023-02-28T23:43:28.394Z,20.03
2023-02-28T23:46:15.247Z,18.20
2023-02-28T23:49:00.270Z,17.07
2023-02-28T23:51:46.186Z,16.93
2023-02-28T23:54:32.205Z,18.17
2023-02-28T23:57:17.682Z,19.13
